Terminal Aerodrome Forecast
Issued by NWS Rapid City, SD

Home | Current Version | Previous Version | Graphics & Text | Print | Product List | Glossary On
Versions: 1 2 3 4 5 6 7 8 9 10 11 12 13 14 15
000
FTUS43 KUNR 191135
TAFRAP
TAF
KRAP 191135Z 1912/2012 09008KT P6SM OVC060
     FM191500 13014KT P6SM -SHRA OVC040
     FM192000 15012KT P6SM -RA OVC020
     FM200500 VRB05KT 4SM -RASN OVC012=

USA.gov is the U.S. government's official web portal to all federal, state and local government web resources and services.